Time;durP1;ratioP1;P1;durP2;ratioP2;P2;SDS_P1;SDS_P2;PMS_P1;PMS_P2;Temp;Humidity;BMP_temperature;BMP_pressure;BME280_temperature;BME280_humidity;BME280_pressure;Samples;Min_cycle;Max_cycle;Signal;HPM_P1;HPM_P2
2022/06/02 00:01:29;;;;;;;14.17;9.43;;;;;;;20.19;42.87;102099.16;5063533;28;20121;-73
2022/06/02 00:03:54;;;;;;;10.57;8.80;;;;;;;20.38;42.60;102099.44;5033705;28;20037;-73
2022/06/02 00:07:01;;;;;;;11.73;8.53;;;;;;;20.35;42.59;102099.56;5031517;28;20041;-73
2022/06/02 00:09:54;;;;;;;12.07;8.27;;;;;;;20.58;42.03;102105.91;5043306;28;20037;-73
2022/06/02 00:12:23;;;;;;;12.48;8.73;;;;;;;20.50;41.85;102109.69;5034365;28;20026;-73
2022/06/02 00:15:16;;;;;;;10.13;7.93;;;;;;;20.49;42.09;102101.78;5065468;28;20033;-73
2022/06/02 00:18:10;;;;;;;10.07;7.72;;;;;;;20.45;41.88;102098.34;5033127;28;20030;-72
2022/06/02 00:21:04;;;;;;;18.67;8.53;;;;;;;20.30;42.49;102098.81;5040458;28;20036;-73
2022/06/02 00:23:35;;;;;;;14.65;7.93;;;;;;;20.08;42.66;102102.13;5019061;28;20540;-72
2022/06/02 00:26:31;;;;;;;12.13;7.57;;;;;;;20.62;41.53;102091.63;5023236;28;20045;-73
2022/06/02 00:29:35;;;;;;;11.03;8.27;;;;;;;20.46;42.01;102100.06;5027081;28;20483;-73
2022/06/02 00:32:11;;;;;;;12.43;7.83;;;;;;;20.25;42.44;102098.97;5031377;28;20116;-73
2022/06/02 00:34:42;;;;;;;11.00;7.77;;;;;;;20.06;42.39;102101.31;5029952;28;20520;-73
2022/06/02 00:37:23;;;;;;;10.43;7.60;;;;;;;20.44;41.64;102104.59;5064768;28;20036;-73
2022/06/02 00:39:51;;;;;;;17.03;8.17;;;;;;;20.12;42.37;102103.75;5012841;28;20034;-73
2022/06/02 00:42:25;;;;;;;12.00;8.57;;;;;;;20.14;42.60;102103.72;5015049;28;20473;-73
2022/06/02 00:44:58;;;;;;;11.03;7.93;;;;;;;20.15;42.56;102109.00;5031241;28;20057;-73
2022/06/02 00:47:37;;;;;;;12.20;7.80;;;;;;;20.10;42.59;102110.91;5030112;28;20067;-73
2022/06/02 00:50:10;;;;;;;9.83;7.77;;;;;;;20.03;42.19;102109.38;5012870;28;20032;-73
2022/06/02 00:52:54;;;;;;;9.43;7.20;;;;;;;20.13;42.25;102110.81;5025420;28;20511;-73
2022/06/02 00:58:34;;;;;;;10.00;7.37;;;;;;;20.46;41.67;102104.53;5022322;28;20033;-73
2022/06/02 01:01:11;;;;;;;9.00;6.57;;;;;;;20.02;42.35;102112.03;5031440;28;20112;-73
2022/06/02 01:03:41;;;;;;;11.43;7.67;;;;;;;19.83;42.92;102101.97;5027742;28;20018;-73
2022/06/02 01:06:42;;;;;;;9.97;7.10;;;;;;;19.69;43.10;102117.38;5029949;28;20029;-73
2022/06/02 01:09:16;;;;;;;8.27;7.17;;;;;;;19.70;43.38;102117.34;5030195;28;20035;-72
2022/06/02 01:11:46;;;;;;;9.63;7.47;;;;;;;19.72;43.20;102110.22;5032470;28;20112;-73
2022/06/02 01:14:30;;;;;;;11.03;7.23;;;;;;;20.13;42.20;102118.78;5031055;28;20028;-73
2022/06/02 01:17:28;;;;;;;10.30;7.43;;;;;;;19.73;42.86;102121.69;5029498;28;20460;-73
2022/06/02 01:20:11;;;;;;;13.73;7.70;;;;;;;19.83;43.04;102118.75;5029053;28;20324;-75
2022/06/02 01:22:58;;;;;;;10.32;7.43;;;;;;;19.94;42.61;102120.25;5030275;28;20025;-73
2022/06/02 01:25:59;;;;;;;11.73;7.67;;;;;;;20.11;42.27;102122.41;5050398;28;20474;-73
2022/06/02 01:28:34;;;;;;;10.43;7.23;;;;;;;19.57;43.34;102123.91;5027115;28;20049;-73
2022/06/02 01:31:19;;;;;;;10.43;7.20;;;;;;;19.92;42.26;102124.72;5028401;28;22328;-73
2022/06/02 01:34:22;;;;;;;13.73;7.10;;;;;;;19.72;42.85;102131.44;5024843;28;20025;-72
2022/06/02 01:36:57;;;;;;;;;;;;;;;19.95;42.25;102124.66;5025869;28;20075;-73
2022/06/02 01:39:41;;;;;;;10.10;7.20;;;;;;;19.98;42.06;102121.91;5023863;28;19920;-73
2022/06/02 01:42:18;;;;;;;13.27;7.97;;;;;;;19.80;42.78;102129.47;5024512;28;20044;-73
2022/06/02 01:44:58;;;;;;;9.80;7.07;;;;;;;19.67;42.96;102128.03;5021903;28;20036;-73
2022/06/02 01:47:42;;;;;;;11.40;8.73;;;;;;;19.53;43.35;102130.22;5022527;28;20477;-75
2022/06/02 01:50:57;;;;;;;12.57;7.83;;;;;;;19.59;42.95;102127.38;5024727;28;20385;-73
2022/06/02 01:53:53;;;;;;;12.23;8.50;;;;;;;19.92;41.92;102122.94;5024790;28;20029;-73
2022/06/02 01:56:33;;;;;;;10.07;7.23;;;;;;;19.80;42.34;102126.81;5025035;28;20088;-73
2022/06/02 01:59:28;;;;;;;11.33;8.10;;;;;;;19.92;42.22;102124.72;5025196;28;20056;-73
2022/06/02 02:02:11;;;;;;;11.40;8.20;;;;;;;19.62;42.79;102119.34;5016148;28;20092;-72
2022/06/02 02:04:55;;;;;;;14.37;8.53;;;;;;;19.78;42.44;102119.78;5014129;28;20125;-73
2022/06/02 02:07:48;;;;;;;11.87;8.40;;;;;;;19.54;43.32;102121.34;5021223;28;20120;-73
2022/06/02 02:10:19;;;;;;;14.80;9.05;;;;;;;19.55;43.13;102117.75;5021113;28;20478;-73
2022/06/02 02:12:53;;;;;;;14.37;8.63;;;;;;;19.48;43.28;102120.59;5026037;28;20025;-73
2022/06/02 02:15:40;;;;;;;11.17;8.17;;;;;;;19.76;42.49;102127.78;5025146;28;20037;-73
2022/06/02 02:18:45;;;;;;;12.97;9.13;;;;;;;19.48;43.08;102120.59;5053791;28;20120;-73
2022/06/02 02:21:24;;;;;;;10.73;8.07;;;;;;;19.87;41.54;102121.34;5022021;28;20294;-73
2022/06/02 02:23:57;;;;;;;12.13;8.70;;;;;;;19.37;43.13;102125.31;5024770;28;20026;-73
2022/06/02 02:26:45;;;;;;;13.30;8.53;;;;;;;19.57;42.89;102131.88;5020736;28;20116;-73
2022/06/02 02:29:28;;;;;;;12.27;9.00;;;;;;;19.37;42.98;102130.63;5024932;28;20469;-73
2022/06/02 02:31:59;;;;;;;12.65;8.40;;;;;;;19.29;42.89;102127.31;5024647;28;20026;-73
2022/06/02 02:34:37;;;;;;;13.57;8.80;;;;;;;19.13;43.49;102132.97;5055312;28;20030;-74
2022/06/02 02:37:11;;;;;;;13.13;8.70;;;;;;;19.10;43.78;102138.38;5018172;28;20110;-74
2022/06/02 02:39:52;;;;;;;15.03;8.87;;;;;;;19.07;43.44;102138.44;5024991;28;20032;-74
2022/06/02 02:42:24;;;;;;;13.17;8.80;;;;;;;18.98;43.61;102133.38;5024554;28;20029;-73
2022/06/02 02:45:06;;;;;;;11.95;8.80;;;;;;;19.38;42.82;102121.72;5022760;28;20053;-73
2022/06/02 02:48:16;;;;;;;15.17;8.40;;;;;;;19.46;42.47;102130.34;5023348;28;20079;-74
2022/06/02 02:50:51;;;;;;;11.13;8.30;;;;;;;18.98;44.03;102143.97;5025276;28;20017;-74
2022/06/02 02:53:43;;;;;;;12.80;8.60;;;;;;;19.14;43.25;102134.72;5023539;28;20025;-74
2022/06/02 02:57:00;;;;;;;12.30;8.53;;;;;;;19.37;42.67;102133.28;5057085;28;20037;-74
2022/06/02 02:59:55;;;;;;;11.77;8.17;;;;;;;18.85;43.73;102142.47;5010531;28;20124;-74
2022/06/02 03:02:56;;;;;;;12.40;8.73;;;;;;;19.21;43.00;102134.59;5015448;28;20095;-74
2022/06/02 03:05:32;;;;;;;12.30;8.80;;;;;;;19.08;43.00;102128.72;5023319;28;20490;-74
2022/06/02 03:08:14;;;;;;;13.17;9.00;;;;;;;18.97;43.49;102132.50;5029566;28;20021;-74
2022/06/02 03:10:44;;;;;;;14.13;9.07;;;;;;;18.98;43.62;102133.38;5027872;28;20067;-73
2022/06/02 03:13:25;;;;;;;13.07;9.60;;;;;;;19.38;42.81;102134.13;5024433;28;20464;-74
2022/06/02 03:16:09;;;;;;;16.80;10.27;;;;;;;19.20;43.04;102140.78;5026561;28;20040;-74
2022/06/02 03:18:45;;;;;;;13.90;8.90;;;;;;;19.50;42.04;102137.31;5023217;28;20419;-74
2022/06/02 03:21:24;;;;;;;16.23;9.83;;;;;;;19.39;42.16;102134.09;5027866;28;20034;-74
2022/06/02 03:23:56;;;;;;;16.17;8.87;;;;;;;19.23;42.21;102143.34;5027408;28;20029;-74
2022/06/02 03:26:50;;;;;;;16.60;9.75;;;;;;;19.06;42.77;102147.28;5028226;28;20029;-74
2022/06/02 03:29:50;;;;;;;13.70;9.73;;;;;;;18.86;43.30;102149.53;5030430;28;20589;-75
2022/06/02 03:32:48;;;;;;;14.97;9.30;;;;;;;18.91;42.91;102145.03;5019724;28;20342;-74
2022/06/02 03:35:28;;;;;;;16.10;9.80;;;;;;;18.90;43.32;102146.78;5029137;28;20057;-74
2022/06/02 03:38:09;;;;;;;14.23;10.37;;;;;;;18.77;43.40;102156.78;5025468;28;20487;-74
2022/06/02 03:40:49;;;;;;;17.23;10.00;;;;;;;18.72;43.73;102150.72;5021947;28;20034;-74
2022/06/02 03:43:26;;;;;;;13.80;9.67;;;;;;;18.91;42.80;102145.88;5029873;28;20052;-74
2022/06/02 03:45:54;;;;;;;14.13;9.40;;;;;;;18.67;43.60;102159.69;5022351;28;20452;-74
2022/06/02 03:48:46;;;;;;;15.57;9.60;;;;;;;18.73;43.56;102149.81;5025081;28;20025;-74
2022/06/02 03:51:29;;;;;;;16.10;10.10;;;;;;;18.92;42.81;102150.28;5016524;28;20588;-74
2022/06/02 03:54:04;;;;;;;16.87;10.63;;;;;;;18.52;44.51;102156.50;5029565;28;20033;-74
2022/06/02 03:57:03;;;;;;;14.03;9.63;;;;;;;18.52;44.30;102160.88;5021287;28;20397;-74
2022/06/02 03:59:43;;;;;;;16.03;10.10;;;;;;;18.67;42.79;102173.81;5026495;28;20048;-73
2022/06/02 04:02:11;;;;;;;15.43;9.77;;;;;;;18.52;44.31;102169.72;5023669;28;20033;-73
2022/06/02 04:05:17;;;;;;;13.53;9.10;;;;;;;18.56;44.44;102167.84;5019272;28;20048;-73
2022/06/02 04:08:17;;;;;;;15.17;10.03;;;;;;;18.69;43.94;102169.34;5020595;28;20045;-73
2022/06/02 04:11:11;;;;;;;17.83;10.13;;;;;;;18.81;43.96;102173.50;5061081;28;20028;-74
2022/06/02 04:14:05;;;;;;;16.13;10.83;;;;;;;18.96;42.84;102177.59;5019964;28;20546;-73
2022/06/02 04:16:48;;;;;;;17.17;10.43;;;;;;;19.14;42.46;102171.81;5020842;28;20517;-73
2022/06/02 04:22:32;;;;;;;15.53;9.87;;;;;;;18.92;43.36;102173.28;5026357;28;20048;-73
2022/06/02 04:25:15;;;;;;;16.47;9.97;;;;;;;18.85;43.86;102180.44;5026262;28;20072;-74
2022/06/02 04:28:00;;;;;;;14.57;9.13;;;;;;;19.22;42.33;102176.06;5060418;28;20092;-73
2022/06/02 04:30:37;;;;;;;16.70;10.07;;;;;;;19.25;42.44;102183.94;5027282;28;20120;-74
2022/06/02 04:33:32;;;;;;;16.00;10.43;;;;;;;19.21;42.96;102187.59;5019309;28;20033;-73
2022/06/02 04:36:03;;;;;;;19.47;10.87;;;;;;;18.96;43.62;102193.47;5027572;28;20057;-74
2022/06/02 04:38:41;;;;;;;19.67;11.53;;;;;;;19.24;43.19;102191.00;5036145;28;20448;-73
2022/06/02 04:41:31;;;;;;;17.60;11.00;;;;;;;19.41;44.05;102201.22;5026789;28;20041;-73
2022/06/02 04:44:23;;;;;;;18.77;11.10;;;;;;;20.33;42.42;102191.63;5024995;28;20029;-74
2022/06/02 04:47:19;;;;;;;19.37;11.33;;;;;;;21.38;40.16;102190.13;5026359;28;20366;-74
2022/06/02 04:50:07;;;;;;;14.70;9.83;;;;;;;23.05;38.38;102192.81;5022811;28;20033;-73
2022/06/02 04:52:56;;;;;;;13.83;8.97;;;;;;;23.88;36.32;102196.50;5026627;28;20533;-74
2022/06/02 04:56:08;;;;;;;8.55;6.63;;;;;;;24.36;35.11;102200.50;5028003;28;20040;-74
2022/06/02 04:58:58;;;;;;;9.82;7.07;;;;;;;24.17;34.45;102200.50;5005650;28;20199;-74
2022/06/02 05:01:32;;;;;;;8.32;6.28;;;;;;;23.68;35.85;102197.31;5002460;28;20128;-74
2022/06/02 05:04:19;;;;;;;8.50;6.28;;;;;;;22.98;36.96;102202.00;5021417;28;20055;-73
2022/06/02 05:07:09;;;;;;;8.77;6.63;;;;;;;22.31;38.07;102201.03;5025265;28;20846;-74
2022/06/02 05:09:55;;;;;;;8.85;6.70;;;;;;;21.77;39.02;102217.19;5026016;28;20065;-73
2022/06/02 05:12:36;;;;;;;10.63;7.65;;;;;;;21.68;39.93;102217.53;5017910;28;20104;-73
2022/06/02 05:15:12;;;;;;;10.45;7.78;;;;;;;21.58;39.86;102219.63;5020254;28;20037;-73
2022/06/02 05:17:43;;;;;;;10.23;7.47;;;;;;;21.35;40.44;102223.06;5023291;28;20397;-73
2022/06/02 05:20:43;;;;;;;10.35;7.05;;;;;;;21.49;40.70;102228.75;5024679;28;20033;-73
2022/06/02 05:23:38;;;;;;;13.07;9.25;;;;;;;21.60;40.22;102220.44;5059755;28;20029;-73
2022/06/02 05:26:24;;;;;;;12.40;8.73;;;;;;;21.71;40.20;102227.16;5032006;28;20079;-73
2022/06/02 05:29:12;;;;;;;11.82;9.27;;;;;;;21.59;40.76;102232.00;5032494;28;20057;-73
2022/06/02 05:31:43;;;;;;;14.27;8.53;;;;;;;21.36;41.32;102232.75;5062959;28;20033;-74
2022/06/02 05:34:18;;;;;;;10.95;8.63;;;;;;;21.44;41.19;102236.00;5025853;28;20041;-73
2022/06/02 05:36:52;;;;;;;16.83;9.57;;;;;;;20.76;42.89;102234.66;5055912;28;20064;-73
2022/06/02 05:39:52;;;;;;;11.48;8.13;;;;;;;21.33;41.70;102238.16;5029311;28;20029;-74
2022/06/02 05:42:26;;;;;;;11.85;8.77;;;;;;;21.33;41.45;102249.66;5027283;28;20029;-74
2022/06/02 05:45:16;;;;;;;15.30;9.43;;;;;;;20.90;42.60;102245.75;5023641;28;20037;-74
2022/06/02 05:47:47;;;;;;;13.32;8.23;;;;;;;21.37;41.96;102234.50;5027801;28;20029;-73
2022/06/02 05:50:20;;;;;;;11.68;8.77;;;;;;;21.43;41.80;102234.31;5027878;28;20060;-73
2022/06/02 05:52:54;;;;;;;;;;;;;;;21.66;41.33;102244.16;5031208;28;20477;-74
2022/06/02 05:55:25;;;;;;;12.37;8.90;;;;;;;21.94;40.78;102239.66;5032026;28;19913;-74
2022/06/02 05:58:16;;;;;;;14.00;10.60;;;;;;;21.10;41.89;102242.47;5030382;28;20490;-76
2022/06/02 06:00:57;;;;;;;16.97;10.20;;;;;;;21.61;41.88;102237.25;5025529;28;20029;-73
2022/06/02 06:03:37;;;;;;;12.07;9.57;;;;;;;21.23;42.57;102248.25;5032169;28;20059;-72
2022/06/02 06:06:24;;;;;;;12.02;9.35;;;;;;;20.86;43.68;102248.56;5062817;28;20033;-73
2022/06/02 06:08:53;;;;;;;13.55;9.70;;;;;;;20.68;44.24;102245.53;5013068;28;20549;-73
2022/06/02 06:11:36;;;;;;;15.45;9.48;;;;;;;20.38;44.28;102248.16;5026099;28;20087;-72
2022/06/02 06:14:03;;;;;;;13.70;9.98;;;;;;;20.90;43.91;102250.19;5032006;28;20033;-73
2022/06/02 06:16:39;;;;;;;12.55;9.85;;;;;;;22.51;40.85;102248.28;5031664;28;20777;-73
2022/06/02 06:19:37;;;;;;;11.57;8.90;;;;;;;23.93;39.85;102239.00;5029615;28;20095;-75
2022/06/02 06:22:40;;;;;;;9.35;7.25;;;;;;;24.18;35.98;102247.63;5021699;28;20223;-72
2022/06/02 06:25:53;;;;;;;7.25;6.13;;;;;;;24.44;36.27;102256.28;5013496;28;20466;-73
2022/06/02 06:28:22;;;;;;;7.00;5.78;;;;;;;23.49;37.47;102243.50;5016271;28;20540;-74
2022/06/02 06:30:57;;;;;;;7.22;6.00;;;;;;;23.90;36.79;102249.81;5024305;28;20096;-73
2022/06/02 06:33:58;;;;;;;7.60;6.18;;;;;;;23.97;36.68;102251.25;5031392;28;20560;-74
2022/06/02 06:36:56;;;;;;;7.00;5.97;;;;;;;23.92;37.41;102253.25;5063165;28;20036;-73
2022/06/02 06:39:40;;;;;;;9.60;7.50;;;;;;;22.51;38.84;102257.13;5031021;28;20485;-73
2022/06/02 06:42:15;;;;;;;9.35;7.15;;;;;;;24.67;36.37;102251.69;5031564;28;20083;-73
2022/06/02 06:45:17;;;;;;;9.80;6.90;;;;;;;25.84;34.86;102256.59;5030640;28;20043;-74
2022/06/02 06:47:49;;;;;;;6.25;5.47;;;;;;;28.25;31.25;102242.91;5044091;28;20036;-74
2022/06/02 06:50:28;;;;;;;5.28;4.30;;;;;;;31.19;26.67;102254.25;5030576;28;20032;-73
2022/06/02 06:53:19;;;;;;;3.85;3.45;;;;;;;29.95;27.56;102269.44;5030710;28;20489;-73
2022/06/02 06:55:51;;;;;;;3.10;2.80;;;;;;;32.44;24.44;102266.19;5029209;28;20143;-73
2022/06/02 06:58:24;;;;;;;4.22;2.80;;;;;;;32.17;25.23;102267.44;5014571;28;20041;-73
2022/06/02 07:01:13;;;;;;;3.35;2.40;;;;;;;33.13;23.38;102275.88;5028588;28;20022;-73
2022/06/02 07:03:55;;;;;;;4.65;2.70;;;;;;;33.27;23.02;102281.00;5029668;28;20029;-73
2022/06/02 07:06:54;;;;;;;2.03;1.80;;;;;;;33.56;22.33;102277.66;5011136;28;20029;-73
2022/06/02 07:09:50;;;;;;;1.85;1.75;;;;;;;33.41;22.52;102284.41;5043297;28;20084;-73
2022/06/02 07:15:51;;;;;;;3.17;2.10;;;;;;;32.57;22.47;102280.41;5031071;28;20114;-72
2022/06/02 07:18:54;;;;;;;3.38;2.25;;;;;;;34.75;20.69;102277.25;5054629;28;20673;-72
2022/06/02 07:21:33;;;;;;;1.95;1.85;;;;;;;36.00;18.65;102293.69;5032410;28;20032;-72
2022/06/02 07:24:36;;;;;;;2.92;2.10;;;;;;;33.95;20.78;102294.22;5025518;28;20043;-72
2022/06/02 07:27:26;;;;;;;3.38;1.85;;;;;;;33.02;21.74;102303.03;5026349;28;20113;-72
2022/06/02 07:30:13;;;;;;;2.33;2.13;;;;;;;36.25;19.01;102296.72;5028698;28;20046;-72
2022/06/02 07:33:09;;;;;;;3.72;2.15;;;;;;;35.81;21.04;102302.72;5027832;28;20021;-72
2022/06/02 07:35:47;;;;;;;2.33;2.00;;;;;;;35.08;19.59;102313.22;5020784;28;20131;-72
2022/06/02 07:38:38;;;;;;;2.22;2.03;;;;;;;36.04;18.84;102309.69;5027800;28;20393;-72
2022/06/02 07:41:41;;;;;;;4.00;2.30;;;;;;;35.61;19.31;102304.63;5028908;28;20025;-72
2022/06/02 07:44:22;;;;;;;3.53;2.20;;;;;;;35.88;19.30;102305.75;5016283;28;20046;-71
2022/06/02 07:47:30;;;;;;;1.90;1.70;;;;;;;36.07;18.10;102309.41;5028746;28;20056;-71
2022/06/02 07:50:20;;;;;;;6.05;2.33;;;;;;;33.19;20.30;102318.69;5029440;28;20536;-71
2022/06/02 07:53:07;;;;;;;3.35;2.03;;;;;;;36.99;16.91;102311.25;5034423;28;20025;-72
2022/06/02 07:55:49;;;;;;;3.95;2.00;;;;;;;37.14;16.43;102318.91;5018671;28;20143;-72
2022/06/02 07:58:21;;;;;;;2.75;2.25;;;;;;;36.95;18.81;102315.28;5029762;28;20052;-72
2022/06/02 08:01:05;;;;;;;3.03;2.38;;;;;;;37.10;18.79;102322.94;5032939;28;20052;-72
2022/06/02 08:03:42;;;;;;;4.25;3.85;;;;;;;36.95;18.15;102322.63;5030544;28;20080;-72
2022/06/02 08:06:17;;;;;;;3.15;2.85;;;;;;;34.99;18.79;102321.22;5031571;28;20033;-72
2022/06/02 08:09:13;;;;;;;3.83;3.08;;;;;;;36.75;18.54;102321.84;5033801;28;20025;-71
2022/06/02 08:11:39;;;;;;;4.63;2.67;;;;;;;35.27;18.57;102315.94;5032414;28;20481;-72
2022/06/02 08:14:16;;;;;;;3.58;2.92;;;;;;;32.40;21.34;102329.66;5027987;28;20154;-72
2022/06/02 08:17:00;;;;;;;3.33;2.90;;;;;;;34.64;20.69;102324.38;5027620;28;20025;-71
2022/06/02 08:19:37;;;;;;;3.33;3.00;;;;;;;34.81;18.74;102322.88;5063130;28;20076;-71
2022/06/02 08:22:08;;;;;;;3.97;3.63;;;;;;;34.58;19.98;102331.22;5023272;28;20026;-72
2022/06/02 08:24:51;;;;;;;4.10;3.30;;;;;;;35.76;18.44;102329.47;5031917;28;20037;-72
2022/06/02 08:27:31;;;;;;;3.55;3.25;;;;;;;35.73;18.56;102326.22;5032552;28;20116;-72
2022/06/02 08:30:33;;;;;;;3.47;3.17;;;;;;;36.29;18.26;102325.34;5063518;28;20084;-72
2022/06/02 08:33:40;;;;;;;3.67;3.03;;;;;;;33.10;20.71;102330.31;5030279;28;20036;-72
2022/06/02 08:36:27;;;;;;;3.60;2.92;;;;;;;35.46;19.71;102325.09;5026908;28;20143;-72
2022/06/02 08:39:04;;;;;;;3.28;2.97;;;;;;;35.71;18.64;102328.22;5027238;28;20052;-71
2022/06/02 08:41:42;;;;;;;4.07;2.70;;;;;;;37.03;17.98;102325.44;5061087;28;20200;-71
2022/06/02 08:44:31;;;;;;;4.55;3.05;;;;;;;36.26;17.48;102325.66;5032419;28;20049;-73
2022/06/02 08:47:15;;;;;;;2.97;2.75;;;;;;;36.89;17.60;102325.94;5031528;28;20060;-73
2022/06/02 08:49:56;;;;;;;3.63;2.60;;;;;;;37.53;17.76;102332.19;5021943;28;20029;-72
2022/06/02 08:53:00;;;;;;;5.13;3.20;;;;;;;37.76;16.64;102335.31;5058907;28;20385;-71
2022/06/02 08:55:31;;;;;;;4.13;3.35;;;;;;;35.90;18.86;102336.38;5017005;28;20144;-72
2022/06/02 08:58:02;;;;;;;5.90;4.65;;;;;;;35.67;18.74;102339.38;5030660;28;20502;-72
2022/06/02 09:00:53;;;;;;;4.07;2.97;;;;;;;35.21;19.26;102340.94;5053824;28;20500;-73
2022/06/02 09:03:55;;;;;;;5.10;3.47;;;;;;;33.37;20.76;102342.56;5026465;28;20104;-73
2022/06/02 09:06:42;;;;;;;;;;;;;;;33.26;20.08;102341.63;5020207;28;20125;-72
2022/06/02 09:09:26;;;;;;;4.25;2.83;;;;;;;33.31;20.32;102339.38;5030561;28;19940;-73
2022/06/02 09:11:57;;;;;;;3.20;2.88;;;;;;;30.87;22.10;102339.34;5023703;28;20030;-72
2022/06/02 09:14:53;;;;;;;3.28;2.97;;;;;;;30.32;23.40;102341.44;5039644;28;20092;-72
2022/06/02 09:17:53;;;;;;;3.53;3.22;;;;;;;29.37;23.33;102343.41;5029582;28;20030;-71
2022/06/02 09:20:19;;;;;;;3.58;2.80;;;;;;;30.65;23.02;102344.56;5042007;28;20064;-72
2022/06/02 09:23:03;;;;;;;3.97;2.95;;;;;;;31.67;24.10;102345.19;5037609;28;20382;-72
2022/06/02 09:25:39;;;;;;;5.05;3.30;;;;;;;31.71;23.16;102342.16;5056016;28;20033;-72
2022/06/02 09:28:44;;;;;;;3.75;2.72;;;;;;;32.09;21.76;102345.56;5026836;28;20504;-72
2022/06/02 09:31:12;;;;;;;3.30;2.97;;;;;;;33.58;21.00;102340.75;5030309;28;20053;-72
2022/06/02 09:33:43;;;;;;;4.38;2.53;;;;;;;33.76;21.40;102345.59;5058937;28;20040;-72
2022/06/02 09:36:27;;;;;;;3.30;2.63;;;;;;;34.79;20.06;102343.84;5022805;28;20097;-72
2022/06/02 09:39:11;;;;;;;4.47;2.58;;;;;;;35.23;18.67;102338.94;5056153;28;20049;-72
2022/06/02 09:41:55;;;;;;;4.15;2.83;;;;;;;35.48;17.09;102353.00;5053796;28;20033;-73
2022/06/02 09:44:44;;;;;;;3.92;3.10;;;;;;;35.23;17.04;102349.81;5021450;28;20113;-73
2022/06/02 09:47:33;;;;;;;3.33;2.70;;;;;;;36.27;16.58;102353.72;5022133;28;20109;-72
2022/06/02 09:50:11;;;;;;;2.17;1.83;;;;;;;37.46;15.60;102350.22;5031707;28;20021;-73
2022/06/02 09:53:06;;;;;;;2.67;2.30;;;;;;;37.64;15.58;102337.38;5033526;28;20047;-72
2022/06/02 09:55:37;;;;;;;1.70;1.60;;;;;;;36.82;16.34;102331.16;5033543;28;20045;-72
2022/06/02 09:58:18;;;;;;;3.58;2.42;;;;;;;38.00;15.87;102331.03;5030802;28;20033;-73
2022/06/02 10:01:21;;;;;;;2.45;1.80;;;;;;;37.63;14.99;102332.97;5014676;28;20110;-73
2022/06/02 10:03:55;;;;;;;2.13;1.92;;;;;;;36.94;15.58;102324.47;5042511;28;20044;-73
2022/06/02 10:06:52;;;;;;;4.70;2.30;;;;;;;36.57;16.95;102321.81;5020989;28;20026;-73
2022/06/02 10:09:24;;;;;;;3.08;2.35;;;;;;;36.97;16.16;102324.19;5031812;28;20060;-73
2022/06/02 10:15:19;;;;;;;2.50;2.30;;;;;;;35.71;16.23;102325.50;5033108;28;20048;-71
2022/06/02 10:17:56;;;;;;;2.65;2.30;;;;;;;34.88;17.74;102313.16;4971938;28;20036;-71
2022/06/02 10:20:45;;;;;;;2.83;2.40;;;;;;;35.09;17.46;102310.34;5061717;28;20397;-73
2022/06/02 10:23:33;;;;;;;3.45;2.60;;;;;;;33.29;18.56;102319.69;5028256;28;20025;-72
2022/06/02 10:26:15;;;;;;;5.72;2.60;;;;;;;34.01;19.52;102316.38;5016188;28;20036;-72
2022/06/02 10:29:16;;;;;;;2.47;2.28;;;;;;;32.26;19.63;102309.09;5025834;28;20029;-73
2022/06/02 10:32:03;;;;;;;2.70;2.33;;;;;;;34.59;17.34;102303.06;5040524;28;20429;-72
2022/06/02 10:35:06;;;;;;;3.42;2.75;;;;;;;36.22;17.36;102302.47;5031530;28;20032;-73
2022/06/02 10:37:50;;;;;;;7.18;2.90;;;;;;;36.78;17.38;102302.47;5027672;28;20070;-74
2022/06/02 10:40:26;;;;;;;5.93;3.13;;;;;;;35.62;17.39;102300.03;5026234;28;20025;-72
2022/06/02 10:43:23;;;;;;;4.38;2.88;;;;;;;35.35;17.80;102298.06;5036794;28;20112;-72
2022/06/02 10:46:05;;;;;;;3.00;2.70;;;;;;;35.16;18.78;102299.78;5023586;28;20112;-72
2022/06/02 10:49:02;;;;;;;4.25;2.40;;;;;;;36.02;17.81;102301.69;5022644;28;20025;-72
2022/06/02 10:51:36;;;;;;;2.90;1.88;;;;;;;35.81;16.66;102288.28;5022551;28;20021;-72
2022/06/02 10:54:20;;;;;;;1.90;1.75;;;;;;;36.13;16.94;102287.03;5022759;28;20147;-71
2022/06/02 10:57:23;;;;;;;2.22;2.03;;;;;;;34.63;16.97;102288.22;5052771;28;20137;-72
2022/06/02 11:00:13;;;;;;;1.70;1.60;;;;;;;35.09;16.47;102298.59;5021135;28;20485;-71
2022/06/02 11:02:56;;;;;;;1.80;1.70;;;;;;;35.10;16.56;102294.91;5053347;28;20029;-73
2022/06/02 11:06:06;;;;;;;3.53;1.63;;;;;;;37.23;15.56;102293.41;5013497;28;20036;-73
2022/06/02 11:09:31;;;;;;;2.60;1.58;;;;;;;35.94;17.52;102288.84;5028667;28;20036;-74
2022/06/02 11:12:34;;;;;;;1.70;1.25;;;;;;;37.14;15.63;102283.47;5002279;28;20541;-73
2022/06/02 11:15:30;;;;;;;1.75;1.63;;;;;;;37.61;15.39;102280.44;5002712;28;20846;-72
2022/06/02 11:18:14;;;;;;;5.20;1.98;;;;;;;38.52;13.89;102287.25;5020663;28;20060;-72
2022/06/02 11:21:26;;;;;;;1.85;1.75;;;;;;;35.28;17.57;102292.31;5021757;28;20037;-73
2022/06/02 11:24:00;;;;;;;2.33;2.08;;;;;;;35.92;15.31;102290.84;5023181;28;20045;-72
2022/06/02 11:26:51;;;;;;;4.05;2.45;;;;;;;33.25;17.54;102288.44;5027891;28;20025;-72
2022/06/02 11:29:55;;;;;;;3.25;2.33;;;;;;;32.35;20.07;102285.88;5027704;28;20496;-72
2022/06/02 11:32:35;;;;;;;2.60;2.38;;;;;;;33.88;19.05;102270.47;5024533;28;20492;-72
2022/06/02 11:35:38;;;;;;;2.28;1.90;;;;;;;33.39;17.45;102281.84;5059383;28;20103;-72
2022/06/02 11:38:45;;;;;;;4.20;2.00;;;;;;;31.94;20.44;102277.34;5028682;28;20040;-72
2022/06/02 11:41:48;;;;;;;4.00;2.00;;;;;;;33.95;18.03;102277.94;5027787;28;20021;-72
2022/06/02 11:44:46;;;;;;;4.45;1.80;;;;;;;35.04;16.48;102281.91;5027042;28;20037;-72
2022/06/02 11:47:28;;;;;;;1.70;1.58;;;;;;;33.73;17.90;102284.34;5011383;28;20038;-72
2022/06/02 11:50:15;;;;;;;2.40;2.20;;;;;;;33.35;18.16;102280.38;5019812;28;20032;-72
2022/06/02 11:52:48;;;;;;;2.10;2.00;;;;;;;34.15;16.31;102278.03;5028429;28;20025;-72
2022/06/02 11:55:35;;;;;;;2.08;1.98;;;;;;;34.51;16.09;102266.75;5027942;28;20029;-73
2022/06/02 11:58:16;;;;;;;1.85;1.75;;;;;;;34.95;16.37;102268.16;5027249;28;20044;-72
2022/06/02 12:01:15;;;;;;;2.90;1.50;;;;;;;34.91;15.99;102268.56;5025370;28;20689;-72
2022/06/02 12:04:03;;;;;;;1.92;1.50;;;;;;;34.75;15.70;102264.53;5015809;28;20501;-72
2022/06/02 12:07:24;;;;;;;1.70;1.60;;;;;;;35.02;16.37;102271.16;5027906;28;20453;-73
2022/06/02 12:10:27;;;;;;;1.90;1.40;;;;;;;33.06;17.84;102267.41;5047374;28;20040;-72
2022/06/02 12:13:06;;;;;;;3.97;1.55;;;;;;;32.89;17.40;102274.25;5044687;28;20924;-72
2022/06/02 12:15:51;;;;;;;1.30;1.20;;;;;;;32.74;17.64;102270.09;5031421;28;20072;-73
2022/06/02 12:18:31;;;;;;;2.58;1.33;;;;;;;32.69;18.68;102266.91;5018133;28;20025;-74
2022/06/02 12:21:24;;;;;;;2.38;2.10;;;;;;;32.06;18.10;102264.69;5030686;28;20171;-69
2022/06/02 12:24:12;;;;;;;3.22;1.70;;;;;;;33.39;18.98;102253.91;5014822;28;20033;-72
2022/06/02 12:27:02;;;;;;;2.20;1.55;;;;;;;33.30;18.10;102250.97;5014628;28;20367;-72
2022/06/02 12:29:49;;;;;;;2.50;1.77;;;;;;;32.81;17.44;102250.53;5019146;28;20485;-72
2022/06/02 12:32:50;;;;;;;2.22;1.90;;;;;;;32.12;18.59;102245.25;5033641;28;20029;-72
2022/06/02 12:35:40;;;;;;;2.08;1.98;;;;;;;33.73;17.07;102234.69;5031875;28;20037;-73
2022/06/02 12:38:12;;;;;;;3.33;1.70;;;;;;;33.92;18.37;102242.97;5033529;28;20060;-72
2022/06/02 12:40:49;;;;;;;3.80;2.30;;;;;;;34.22;18.35;102241.22;5033979;28;20029;-72
2022/06/02 12:43:27;;;;;;;4.47;2.00;;;;;;;32.55;19.06;102235.53;5032826;28;20132;-73
2022/06/02 12:46:29;;;;;;;2.33;2.05;;;;;;;33.39;18.15;102243.06;5032077;28;20099;-73
2022/06/02 12:49:23;;;;;;;1.90;1.30;;;;;;;33.31;18.95;102236.41;5020030;28;20069;-72
2022/06/02 12:51:51;;;;;;;2.58;1.80;;;;;;;33.20;18.99;102239.16;5049389;28;20120;-72
2022/06/02 12:54:32;;;;;;;2.20;1.92;;;;;;;31.85;18.92;102238.38;5049065;28;20025;-71
2022/06/02 12:57:19;;;;;;;2.85;2.58;;;;;;;32.09;20.37;102232.00;5034034;28;20477;-72
2022/06/02 13:00:25;;;;;;;5.63;2.10;;;;;;;32.86;18.55;102225.75;5031979;28;20041;-72